sensor_id;sensor_type;location;lat;lon;timestamp;P1;durP1;ratioP1;P2;durP2;ratioP2
10987;SDS011;5547;42.672;23.230;2023-02-26T00:01:55;16.00;;;5.85;;
10987;SDS011;5547;42.672;23.230;2023-02-26T00:05:00;12.82;;;5.63;;
10987;SDS011;5547;42.672;23.230;2023-02-26T00:08:00;15.00;;;5.60;;
10987;SDS011;5547;42.672;23.230;2023-02-26T00:11:00;12.37;;;5.40;;
10987;SDS011;5547;42.672;23.230;2023-02-26T00:14:01;12.47;;;5.87;;
10987;SDS011;5547;42.672;23.230;2023-02-26T00:17:20;14.60;;;5.47;;
10987;SDS011;5547;42.672;23.230;2023-02-26T00:20:40;13.48;;;5.47;;
10987;SDS011;5547;42.672;23.230;2023-02-26T00:23:43;12.85;;;5.28;;
10987;SDS011;5547;42.672;23.230;2023-02-26T00:26:43;11.52;;;5.60;;
10987;SDS011;5547;42.672;23.230;2023-02-26T00:29:44;9.93;;;5.20;;
10987;SDS011;5547;42.672;23.230;2023-02-26T00:32:45;13.82;;;5.15;;
10987;SDS011;5547;42.672;23.230;2023-02-26T00:35:46;14.17;;;5.43;;
10987;SDS011;5547;42.672;23.230;2023-02-26T00:38:57;11.95;;;5.30;;
10987;SDS011;5547;42.672;23.230;2023-02-26T00:41:59;10.95;;;5.10;;
10987;SDS011;5547;42.672;23.230;2023-02-26T00:44:59;12.43;;;5.00;;
10987;SDS011;5547;42.672;23.230;2023-02-26T00:51:25;13.70;;;5.37;;
10987;SDS011;5547;42.672;23.230;2023-02-26T00:54:35;14.95;;;5.50;;
10987;SDS011;5547;42.672;23.230;2023-02-26T00:57:36;9.40;;;5.23;;
10987;SDS011;5547;42.672;23.230;2023-02-26T01:00:36;11.50;;;5.22;;
10987;SDS011;5547;42.672;23.230;2023-02-26T01:03:36;11.50;;;4.87;;
10987;SDS011;5547;42.672;23.230;2023-02-26T01:06:45;13.25;;;5.35;;
10987;SDS011;5547;42.672;23.230;2023-02-26T01:09:50;11.93;;;4.90;;
10987;SDS011;5547;42.672;23.230;2023-02-26T01:12:51;12.97;;;4.87;;
10987;SDS011;5547;42.672;23.230;2023-02-26T01:15:53;10.50;;;5.10;;
10987;SDS011;5547;42.672;23.230;2023-02-26T01:19:02;13.13;;;5.18;;
10987;SDS011;5547;42.672;23.230;2023-02-26T01:25:34;8.85;;;4.40;;
10987;SDS011;5547;42.672;23.230;2023-02-26T01:28:39;13.23;;;4.80;;
10987;SDS011;5547;42.672;23.230;2023-02-26T01:31:52;11.83;;;5.07;;
10987;SDS011;5547;42.672;23.230;2023-02-26T01:35:01;11.65;;;4.05;;
10987;SDS011;5547;42.672;23.230;2023-02-26T01:44:48;10.90;;;4.10;;
10987;SDS011;5547;42.672;23.230;2023-02-26T01:48:12;15.48;;;4.82;;
10987;SDS011;5547;42.672;23.230;2023-02-26T01:54:46;10.33;;;5.17;;
10987;SDS011;5547;42.672;23.230;2023-02-26T01:57:47;11.65;;;4.60;;
10987;SDS011;5547;42.672;23.230;2023-02-26T02:00:51;10.52;;;4.60;;
10987;SDS011;5547;42.672;23.230;2023-02-26T02:03:51;10.60;;;4.00;;
10987;SDS011;5547;42.672;23.230;2023-02-26T02:06:52;10.03;;;4.10;;
10987;SDS011;5547;42.672;23.230;2023-02-26T02:09:53;12.00;;;4.60;;
10987;SDS011;5547;42.672;23.230;2023-02-26T02:33:13;9.17;;;4.40;;
10987;SDS011;5547;42.672;23.230;2023-02-26T02:36:32;10.68;;;4.00;;
10987;SDS011;5547;42.672;23.230;2023-02-26T02:39:42;10.02;;;4.35;;
10987;SDS011;5547;42.672;23.230;2023-02-26T02:46:13;9.98;;;4.03;;
10987;SDS011;5547;42.672;23.230;2023-02-26T02:49:37;10.75;;;4.15;;
10987;SDS011;5547;42.672;23.230;2023-02-26T02:52:51;10.40;;;4.20;;
10987;SDS011;5547;42.672;23.230;2023-02-26T02:55:57;11.10;;;3.97;;
10987;SDS011;5547;42.672;23.230;2023-02-26T02:59:17;9.90;;;4.22;;
10987;SDS011;5547;42.672;23.230;2023-02-26T03:05:42;14.15;;;4.53;;
10987;SDS011;5547;42.672;23.230;2023-02-26T03:08:42;11.43;;;4.00;;
10987;SDS011;5547;42.672;23.230;2023-02-26T03:11:45;8.97;;;4.13;;
10987;SDS011;5547;42.672;23.230;2023-02-26T03:14:45;8.75;;;3.67;;
10987;SDS011;5547;42.672;23.230;2023-02-26T03:21:12;8.40;;;3.80;;
10987;SDS011;5547;42.672;23.230;2023-02-26T03:24:18;10.23;;;3.90;;
10987;SDS011;5547;42.672;23.230;2023-02-26T03:34:31;11.67;;;4.23;;
10987;SDS011;5547;42.672;23.230;2023-02-26T03:37:37;10.88;;;4.15;;
10987;SDS011;5547;42.672;23.230;2023-02-26T03:40:43;16.65;;;4.68;;
10987;SDS011;5547;42.672;23.230;2023-02-26T03:47:04;11.85;;;4.55;;
10987;SDS011;5547;42.672;23.230;2023-02-26T03:50:15;15.30;;;5.05;;
10987;SDS011;5547;42.672;23.230;2023-02-26T03:53:53;14.93;;;5.43;;
10987;SDS011;5547;42.672;23.230;2023-02-26T03:56:51;14.70;;;5.32;;
10987;SDS011;5547;42.672;23.230;2023-02-26T03:59:52;17.10;;;4.97;;
10987;SDS011;5547;42.672;23.230;2023-02-26T04:03:04;14.10;;;4.53;;
10987;SDS011;5547;42.672;23.230;2023-02-26T04:06:12;13.98;;;5.15;;
10987;SDS011;5547;42.672;23.230;2023-02-26T04:09:13;14.50;;;4.60;;
10987;SDS011;5547;42.672;23.230;2023-02-26T04:12:13;14.10;;;4.97;;
10987;SDS011;5547;42.672;23.230;2023-02-26T04:15:14;14.35;;;4.63;;
10987;SDS011;5547;42.672;23.230;2023-02-26T04:18:15;13.10;;;4.90;;
10987;SDS011;5547;42.672;23.230;2023-02-26T04:21:16;14.10;;;4.83;;
10987;SDS011;5547;42.672;23.230;2023-02-26T04:24:20;14.75;;;4.80;;
10987;SDS011;5547;42.672;23.230;2023-02-26T04:27:21;15.07;;;5.50;;
10987;SDS011;5547;42.672;23.230;2023-02-26T04:30:21;13.70;;;4.77;;
10987;SDS011;5547;42.672;23.230;2023-02-26T04:33:21;12.23;;;4.40;;
10987;SDS011;5547;42.672;23.230;2023-02-26T04:36:22;15.83;;;4.97;;
10987;SDS011;5547;42.672;23.230;2023-02-26T04:39:22;11.35;;;4.30;;
10987;SDS011;5547;42.672;23.230;2023-02-26T04:42:23;13.90;;;4.43;;
10987;SDS011;5547;42.672;23.230;2023-02-26T04:45:23;14.20;;;4.53;;
10987;SDS011;5547;42.672;23.230;2023-02-26T04:48:24;12.63;;;5.17;;
10987;SDS011;5547;42.672;23.230;2023-02-26T04:51:24;12.20;;;4.60;;
10987;SDS011;5547;42.672;23.230;2023-02-26T04:54:25;11.25;;;4.32;;
10987;SDS011;5547;42.672;23.230;2023-02-26T04:57:25;14.93;;;5.40;;
10987;SDS011;5547;42.672;23.230;2023-02-26T05:00:25;12.43;;;4.17;;
10987;SDS011;5547;42.672;23.230;2023-02-26T05:03:26;11.87;;;4.60;;
10987;SDS011;5547;42.672;23.230;2023-02-26T05:06:26;12.75;;;4.57;;
10987;SDS011;5547;42.672;23.230;2023-02-26T05:09:27;11.40;;;4.50;;
10987;SDS011;5547;42.672;23.230;2023-02-26T05:12:27;11.77;;;3.90;;
10987;SDS011;5547;42.672;23.230;2023-02-26T05:15:28;13.13;;;4.27;;
10987;SDS011;5547;42.672;23.230;2023-02-26T05:18:28;13.33;;;4.27;;
10987;SDS011;5547;42.672;23.230;2023-02-26T05:21:29;13.65;;;4.18;;
10987;SDS011;5547;42.672;23.230;2023-02-26T05:24:29;14.00;;;3.83;;
10987;SDS011;5547;42.672;23.230;2023-02-26T05:27:29;13.07;;;3.97;;
10987;SDS011;5547;42.672;23.230;2023-02-26T05:30:30;14.53;;;4.43;;
10987;SDS011;5547;42.672;23.230;2023-02-26T05:33:30;12.20;;;4.00;;
10987;SDS011;5547;42.672;23.230;2023-02-26T05:36:31;12.25;;;4.32;;
10987;SDS011;5547;42.672;23.230;2023-02-26T05:39:31;12.32;;;3.65;;
10987;SDS011;5547;42.672;23.230;2023-02-26T05:42:32;13.03;;;3.90;;
10987;SDS011;5547;42.672;23.230;2023-02-26T05:45:32;14.53;;;3.83;;
10987;SDS011;5547;42.672;23.230;2023-02-26T05:48:33;11.73;;;4.10;;
10987;SDS011;5547;42.672;23.230;2023-02-26T05:51:33;13.05;;;3.95;;
10987;SDS011;5547;42.672;23.230;2023-02-26T05:54:34;11.87;;;3.70;;
10987;SDS011;5547;42.672;23.230;2023-02-26T05:57:34;10.60;;;4.20;;
10987;SDS011;5547;42.672;23.230;2023-02-26T06:00:34;10.97;;;3.67;;
10987;SDS011;5547;42.672;23.230;2023-02-26T06:03:35;13.03;;;3.40;;
10987;SDS011;5547;42.672;23.230;2023-02-26T06:06:36;12.52;;;3.25;;
10987;SDS011;5547;42.672;23.230;2023-02-26T06:09:36;12.27;;;3.63;;
10987;SDS011;5547;42.672;23.230;2023-02-26T06:12:37;16.60;;;3.97;;
10987;SDS011;5547;42.672;23.230;2023-02-26T06:15:37;11.02;;;3.15;;
10987;SDS011;5547;42.672;23.230;2023-02-26T06:18:38;12.33;;;2.77;;
10987;SDS011;5547;42.672;23.230;2023-02-26T06:21:38;15.20;;;3.43;;
10987;SDS011;5547;42.672;23.230;2023-02-26T06:24:39;14.43;;;3.83;;
10987;SDS011;5547;42.672;23.230;2023-02-26T06:27:39;12.97;;;3.43;;
10987;SDS011;5547;42.672;23.230;2023-02-26T06:30:40;11.77;;;4.23;;
10987;SDS011;5547;42.672;23.230;2023-02-26T06:33:40;11.48;;;3.20;;
10987;SDS011;5547;42.672;23.230;2023-02-26T06:36:40;13.93;;;3.83;;
10987;SDS011;5547;42.672;23.230;2023-02-26T06:39:41;11.97;;;3.60;;
10987;SDS011;5547;42.672;23.230;2023-02-26T06:42:42;12.80;;;3.40;;
10987;SDS011;5547;42.672;23.230;2023-02-26T06:45:42;11.33;;;3.30;;
10987;SDS011;5547;42.672;23.230;2023-02-26T06:48:42;14.40;;;3.53;;
10987;SDS011;5547;42.672;23.230;2023-02-26T06:51:43;10.60;;;3.35;;
10987;SDS011;5547;42.672;23.230;2023-02-26T06:54:43;11.38;;;4.15;;
10987;SDS011;5547;42.672;23.230;2023-02-26T06:57:43;11.50;;;3.38;;
10987;SDS011;5547;42.672;23.230;2023-02-26T07:00:44;15.20;;;3.50;;
10987;SDS011;5547;42.672;23.230;2023-02-26T07:03:44;13.50;;;3.17;;
10987;SDS011;5547;42.672;23.230;2023-02-26T07:06:45;10.67;;;3.30;;
10987;SDS011;5547;42.672;23.230;2023-02-26T07:09:45;17.23;;;3.73;;
10987;SDS011;5547;42.672;23.230;2023-02-26T07:12:46;12.97;;;5.30;;
10987;SDS011;5547;42.672;23.230;2023-02-26T07:15:47;10.95;;;3.47;;
10987;SDS011;5547;42.672;23.230;2023-02-26T07:18:48;9.53;;;3.57;;
10987;SDS011;5547;42.672;23.230;2023-02-26T07:21:48;14.00;;;3.63;;
10987;SDS011;5547;42.672;23.230;2023-02-26T07:24:48;12.13;;;4.07;;
10987;SDS011;5547;42.672;23.230;2023-02-26T07:27:50;13.75;;;3.60;;
10987;SDS011;5547;42.672;23.230;2023-02-26T07:30:53;10.20;;;3.08;;
10987;SDS011;5547;42.672;23.230;2023-02-26T07:33:54;14.43;;;3.83;;
10987;SDS011;5547;42.672;23.230;2023-02-26T07:36:54;16.37;;;3.83;;
10987;SDS011;5547;42.672;23.230;2023-02-26T07:39:54;14.38;;;4.75;;
10987;SDS011;5547;42.672;23.230;2023-02-26T07:42:55;10.95;;;3.78;;
10987;SDS011;5547;42.672;23.230;2023-02-26T07:45:55;12.32;;;4.65;;
10987;SDS011;5547;42.672;23.230;2023-02-26T07:48:56;14.90;;;4.07;;
10987;SDS011;5547;42.672;23.230;2023-02-26T07:51:56;13.93;;;3.17;;
10987;SDS011;5547;42.672;23.230;2023-02-26T07:54:57;13.17;;;4.47;;
10987;SDS011;5547;42.672;23.230;2023-02-26T07:57:57;13.43;;;3.87;;
10987;SDS011;5547;42.672;23.230;2023-02-26T08:00:58;15.43;;;6.07;;
10987;SDS011;5547;42.672;23.230;2023-02-26T08:03:58;16.33;;;4.25;;
10987;SDS011;5547;42.672;23.230;2023-02-26T08:06:59;14.23;;;4.28;;
10987;SDS011;5547;42.672;23.230;2023-02-26T08:10:00;14.77;;;3.92;;
10987;SDS011;5547;42.672;23.230;2023-02-26T08:13:01;13.50;;;4.43;;
10987;SDS011;5547;42.672;23.230;2023-02-26T08:16:01;13.10;;;3.83;;
10987;SDS011;5547;42.672;23.230;2023-02-26T08:19:01;15.38;;;3.65;;
10987;SDS011;5547;42.672;23.230;2023-02-26T08:22:02;14.27;;;3.97;;
10987;SDS011;5547;42.672;23.230;2023-02-26T08:25:02;14.63;;;3.70;;
10987;SDS011;5547;42.672;23.230;2023-02-26T08:28:03;16.17;;;3.53;;
10987;SDS011;5547;42.672;23.230;2023-02-26T08:31:04;16.70;;;3.55;;
10987;SDS011;5547;42.672;23.230;2023-02-26T08:34:05;12.95;;;3.67;;
10987;SDS011;5547;42.672;23.230;2023-02-26T08:37:05;14.83;;;3.60;;
10987;SDS011;5547;42.672;23.230;2023-02-26T08:40:08;14.00;;;5.07;;
10987;SDS011;5547;42.672;23.230;2023-02-26T08:43:10;13.05;;;4.10;;
10987;SDS011;5547;42.672;23.230;2023-02-26T08:46:11;15.15;;;4.85;;
10987;SDS011;5547;42.672;23.230;2023-02-26T08:49:12;16.77;;;3.70;;
10987;SDS011;5547;42.672;23.230;2023-02-26T08:52:12;16.20;;;4.60;;
10987;SDS011;5547;42.672;23.230;2023-02-26T08:55:13;17.70;;;4.97;;
10987;SDS011;5547;42.672;23.230;2023-02-26T08:58:13;16.10;;;4.80;;
10987;SDS011;5547;42.672;23.230;2023-02-26T09:01:13;16.73;;;4.70;;
10987;SDS011;5547;42.672;23.230;2023-02-26T09:04:14;18.60;;;4.60;;
10987;SDS011;5547;42.672;23.230;2023-02-26T09:07:14;15.57;;;4.73;;
10987;SDS011;5547;42.672;23.230;2023-02-26T09:10:15;13.60;;;4.23;;
10987;SDS011;5547;42.672;23.230;2023-02-26T09:13:16;14.88;;;3.65;;
10987;SDS011;5547;42.672;23.230;2023-02-26T09:16:16;14.57;;;3.63;;
10987;SDS011;5547;42.672;23.230;2023-02-26T09:19:17;13.67;;;3.90;;
10987;SDS011;5547;42.672;23.230;2023-02-26T09:22:17;12.90;;;3.27;;
10987;SDS011;5547;42.672;23.230;2023-02-26T09:25:17;14.87;;;3.70;;
10987;SDS011;5547;42.672;23.230;2023-02-26T09:28:18;10.20;;;3.10;;
10987;SDS011;5547;42.672;23.230;2023-02-26T09:31:18;15.37;;;4.93;;
10987;SDS011;5547;42.672;23.230;2023-02-26T09:34:19;12.63;;;4.30;;
10987;SDS011;5547;42.672;23.230;2023-02-26T09:37:19;14.93;;;4.67;;
10987;SDS011;5547;42.672;23.230;2023-02-26T09:40:42;21.60;;;8.37;;
10987;SDS011;5547;42.672;23.230;2023-02-26T09:47:21;13.20;;;3.83;;
10987;SDS011;5547;42.672;23.230;2023-02-26T09:50:37;12.20;;;3.73;;
10987;SDS011;5547;42.672;23.230;2023-02-26T09:53:38;16.27;;;4.40;;
10987;SDS011;5547;42.672;23.230;2023-02-26T09:56:40;11.13;;;3.75;;
10987;SDS011;5547;42.672;23.230;2023-02-26T09:59:41;11.07;;;3.70;;
10987;SDS011;5547;42.672;23.230;2023-02-26T10:08:51;14.53;;;3.80;;
10987;SDS011;5547;42.672;23.230;2023-02-26T10:12:19;13.25;;;4.20;;
10987;SDS011;5547;42.672;23.230;2023-02-26T10:15:22;12.43;;;3.28;;
10987;SDS011;5547;42.672;23.230;2023-02-26T10:18:41;14.40;;;3.83;;
10987;SDS011;5547;42.672;23.230;2023-02-26T10:24:56;14.40;;;4.55;;
10987;SDS011;5547;42.672;23.230;2023-02-26T10:37:56;12.05;;;3.90;;
10987;SDS011;5547;42.672;23.230;2023-02-26T10:41:09;13.60;;;4.10;;
10987;SDS011;5547;42.672;23.230;2023-02-26T10:44:26;12.52;;;4.25;;
10987;SDS011;5547;42.672;23.230;2023-02-26T10:47:43;14.23;;;4.80;;
10987;SDS011;5547;42.672;23.230;2023-02-26T10:50:53;11.57;;;4.00;;
10987;SDS011;5547;42.672;23.230;2023-02-26T10:53:58;13.77;;;4.20;;
10987;SDS011;5547;42.672;23.230;2023-02-26T10:57:02;12.57;;;4.72;;
10987;SDS011;5547;42.672;23.230;2023-02-26T11:00:03;13.00;;;4.57;;
10987;SDS011;5547;42.672;23.230;2023-02-26T11:03:06;16.63;;;4.38;;
10987;SDS011;5547;42.672;23.230;2023-02-26T11:06:35;13.05;;;4.20;;
10987;SDS011;5547;42.672;23.230;2023-02-26T11:09:51;12.23;;;3.90;;
10987;SDS011;5547;42.672;23.230;2023-02-26T11:12:53;14.27;;;4.32;;
10987;SDS011;5547;42.672;23.230;2023-02-26T11:15:55;13.17;;;4.10;;
10987;SDS011;5547;42.672;23.230;2023-02-26T11:18:58;11.10;;;4.10;;
10987;SDS011;5547;42.672;23.230;2023-02-26T11:22:00;13.18;;;3.63;;
10987;SDS011;5547;42.672;23.230;2023-02-26T11:25:03;12.37;;;4.03;;
10987;SDS011;5547;42.672;23.230;2023-02-26T11:28:06;17.17;;;4.35;;
10987;SDS011;5547;42.672;23.230;2023-02-26T11:31:19;13.93;;;4.00;;
10987;SDS011;5547;42.672;23.230;2023-02-26T11:34:21;14.68;;;3.97;;
10987;SDS011;5547;42.672;23.230;2023-02-26T11:37:27;14.30;;;4.13;;
10987;SDS011;5547;42.672;23.230;2023-02-26T11:40:38;10.68;;;3.75;;
10987;SDS011;5547;42.672;23.230;2023-02-26T11:43:41;10.93;;;3.80;;
10987;SDS011;5547;42.672;23.230;2023-02-26T11:46:46;17.17;;;4.20;;
10987;SDS011;5547;42.672;23.230;2023-02-26T11:49:51;13.10;;;3.88;;
10987;SDS011;5547;42.672;23.230;2023-02-26T11:53:03;13.00;;;4.00;;
10987;SDS011;5547;42.672;23.230;2023-02-26T11:56:08;13.73;;;4.07;;
10987;SDS011;5547;42.672;23.230;2023-02-26T11:59:18;14.30;;;3.87;;
10987;SDS011;5547;42.672;23.230;2023-02-26T12:02:21;11.93;;;4.20;;
10987;SDS011;5547;42.672;23.230;2023-02-26T12:05:23;16.50;;;4.65;;
10987;SDS011;5547;42.672;23.230;2023-02-26T12:08:27;13.60;;;4.63;;
10987;SDS011;5547;42.672;23.230;2023-02-26T12:14:46;13.07;;;4.00;;
10987;SDS011;5547;42.672;23.230;2023-02-26T12:24:31;12.05;;;4.05;;
10987;SDS011;5547;42.672;23.230;2023-02-26T12:27:39;16.33;;;4.37;;
10987;SDS011;5547;42.672;23.230;2023-02-26T12:45:01;16.58;;;3.85;;
10987;SDS011;5547;42.672;23.230;2023-02-26T12:47:59;16.93;;;4.43;;
10987;SDS011;5547;42.672;23.230;2023-02-26T12:51:08;14.85;;;3.70;;
10987;SDS011;5547;42.672;23.230;2023-02-26T13:11:26;13.27;;;3.80;;
10987;SDS011;5547;42.672;23.230;2023-02-26T13:14:44;13.82;;;3.35;;
10987;SDS011;5547;42.672;23.230;2023-02-26T13:18:17;12.75;;;3.88;;
10987;SDS011;5547;42.672;23.230;2023-02-26T13:24:26;15.82;;;4.45;;
10987;SDS011;5547;42.672;23.230;2023-02-26T13:27:41;16.00;;;5.07;;
10987;SDS011;5547;42.672;23.230;2023-02-26T13:30:44;14.75;;;4.13;;
10987;SDS011;5547;42.672;23.230;2023-02-26T13:33:49;11.48;;;3.60;;
10987;SDS011;5547;42.672;23.230;2023-02-26T13:36:50;12.38;;;3.97;;
10987;SDS011;5547;42.672;23.230;2023-02-26T13:53:48;17.30;;;4.38;;
10987;SDS011;5547;42.672;23.230;2023-02-26T14:03:39;15.75;;;3.80;;
10987;SDS011;5547;42.672;23.230;2023-02-26T14:06:46;14.45;;;4.35;;
10987;SDS011;5547;42.672;23.230;2023-02-26T14:10:22;13.95;;;3.83;;
10987;SDS011;5547;42.672;23.230;2023-02-26T14:16:41;13.85;;;4.13;;
10987;SDS011;5547;42.672;23.230;2023-02-26T14:20:06;15.13;;;4.57;;
10987;SDS011;5547;42.672;23.230;2023-02-26T14:23:31;15.07;;;4.07;;
10987;SDS011;5547;42.672;23.230;2023-02-26T14:26:35;14.48;;;3.78;;
10987;SDS011;5547;42.672;23.230;2023-02-26T14:29:41;14.82;;;4.60;;
10987;SDS011;5547;42.672;23.230;2023-02-26T14:32:48;11.93;;;4.40;;
10987;SDS011;5547;42.672;23.230;2023-02-26T14:35:54;12.10;;;4.13;;
10987;SDS011;5547;42.672;23.230;2023-02-26T14:38:56;13.98;;;4.03;;
10987;SDS011;5547;42.672;23.230;2023-02-26T14:42:02;11.90;;;3.65;;
10987;SDS011;5547;42.672;23.230;2023-02-26T14:48:16;12.90;;;4.25;;
10987;SDS011;5547;42.672;23.230;2023-02-26T14:58:41;14.70;;;4.67;;
10987;SDS011;5547;42.672;23.230;2023-02-26T15:14:41;14.40;;;4.72;;
10987;SDS011;5547;42.672;23.230;2023-02-26T15:24:20;12.25;;;3.92;;
10987;SDS011;5547;42.672;23.230;2023-02-26T15:27:21;10.60;;;4.37;;
10987;SDS011;5547;42.672;23.230;2023-02-26T15:30:22;13.00;;;4.55;;
10987;SDS011;5547;42.672;23.230;2023-02-26T15:33:24;12.40;;;4.20;;
10987;SDS011;5547;42.672;23.230;2023-02-26T15:36:27;10.73;;;4.13;;
10987;SDS011;5547;42.672;23.230;2023-02-26T15:39:30;14.13;;;4.10;;
10987;SDS011;5547;42.672;23.230;2023-02-26T15:42:32;15.37;;;4.50;;
10987;SDS011;5547;42.672;23.230;2023-02-26T15:45:40;11.85;;;4.88;;
10987;SDS011;5547;42.672;23.230;2023-02-26T15:48:43;10.20;;;3.85;;
10987;SDS011;5547;42.672;23.230;2023-02-26T15:51:45;11.10;;;4.20;;
10987;SDS011;5547;42.672;23.230;2023-02-26T15:54:54;11.00;;;4.40;;
10987;SDS011;5547;42.672;23.230;2023-02-26T15:57:57;12.30;;;4.93;;
10987;SDS011;5547;42.672;23.230;2023-02-26T16:00:59;11.37;;;5.23;;
10987;SDS011;5547;42.672;23.230;2023-02-26T16:04:02;12.90;;;4.38;;
10987;SDS011;5547;42.672;23.230;2023-02-26T16:07:08;12.95;;;4.53;;
10987;SDS011;5547;42.672;23.230;2023-02-26T16:10:25;11.25;;;3.97;;
10987;SDS011;5547;42.672;23.230;2023-02-26T16:13:28;13.18;;;4.45;;
10987;SDS011;5547;42.672;23.230;2023-02-26T16:16:40;13.30;;;4.20;;
10987;SDS011;5547;42.672;23.230;2023-02-26T16:19:45;11.48;;;4.20;;
10987;SDS011;5547;42.672;23.230;2023-02-26T16:22:49;10.20;;;3.97;;
10987;SDS011;5547;42.672;23.230;2023-02-26T16:29:00;11.53;;;3.90;;
10987;SDS011;5547;42.672;23.230;2023-02-26T16:32:03;13.63;;;4.22;;
10987;SDS011;5547;42.672;23.230;2023-02-26T16:35:10;14.90;;;5.22;;
10987;SDS011;5547;42.672;23.230;2023-02-26T16:38:20;11.27;;;4.47;;
10987;SDS011;5547;42.672;23.230;2023-02-26T16:41:27;10.48;;;3.80;;
10987;SDS011;5547;42.672;23.230;2023-02-26T16:47:29;14.93;;;6.80;;
10987;SDS011;5547;42.672;23.230;2023-02-26T16:50:32;12.57;;;5.68;;
10987;SDS011;5547;42.672;23.230;2023-02-26T16:53:36;17.73;;;9.02;;
10987;SDS011;5547;42.672;23.230;2023-02-26T16:56:45;16.20;;;8.30;;
10987;SDS011;5547;42.672;23.230;2023-02-26T16:59:53;67.10;;;24.17;;
10987;SDS011;5547;42.672;23.230;2023-02-26T17:02:58;45.22;;;17.30;;
10987;SDS011;5547;42.672;23.230;2023-02-26T17:06:12;24.67;;;9.55;;
10987;SDS011;5547;42.672;23.230;2023-02-26T17:09:29;19.98;;;9.48;;
10987;SDS011;5547;42.672;23.230;2023-02-26T17:12:39;27.70;;;12.98;;
10987;SDS011;5547;42.672;23.230;2023-02-26T17:15:46;33.97;;;14.63;;
10987;SDS011;5547;42.672;23.230;2023-02-26T17:18:46;26.80;;;10.50;;
10987;SDS011;5547;42.672;23.230;2023-02-26T17:21:53;13.83;;;6.23;;
10987;SDS011;5547;42.672;23.230;2023-02-26T17:24:56;15.20;;;6.45;;
10987;SDS011;5547;42.672;23.230;2023-02-26T17:27:57;14.97;;;6.50;;
10987;SDS011;5547;42.672;23.230;2023-02-26T17:30:57;13.10;;;5.40;;
10987;SDS011;5547;42.672;23.230;2023-02-26T17:33:58;13.67;;;5.77;;
10987;SDS011;5547;42.672;23.230;2023-02-26T17:36:58;15.17;;;5.67;;
10987;SDS011;5547;42.672;23.230;2023-02-26T17:40:09;15.38;;;5.53;;
10987;SDS011;5547;42.672;23.230;2023-02-26T17:43:24;13.20;;;6.00;;
10987;SDS011;5547;42.672;23.230;2023-02-26T17:46:26;13.15;;;6.97;;
10987;SDS011;5547;42.672;23.230;2023-02-26T17:49:26;11.70;;;4.67;;
10987;SDS011;5547;42.672;23.230;2023-02-26T17:52:26;13.15;;;4.43;;
10987;SDS011;5547;42.672;23.230;2023-02-26T17:55:27;13.43;;;4.70;;
10987;SDS011;5547;42.672;23.230;2023-02-26T17:58:28;12.20;;;4.87;;
10987;SDS011;5547;42.672;23.230;2023-02-26T18:01:31;14.90;;;4.95;;
10987;SDS011;5547;42.672;23.230;2023-02-26T18:04:31;11.27;;;5.07;;
10987;SDS011;5547;42.672;23.230;2023-02-26T18:07:34;10.77;;;4.67;;
10987;SDS011;5547;42.672;23.230;2023-02-26T18:10:34;10.38;;;5.20;;
10987;SDS011;5547;42.672;23.230;2023-02-26T18:13:35;12.70;;;5.30;;
10987;SDS011;5547;42.672;23.230;2023-02-26T18:16:37;12.17;;;4.70;;
10987;SDS011;5547;42.672;23.230;2023-02-26T18:19:40;13.52;;;5.38;;
10987;SDS011;5547;42.672;23.230;2023-02-26T18:22:41;12.57;;;5.43;;
10987;SDS011;5547;42.672;23.230;2023-02-26T18:25:42;12.38;;;5.35;;
10987;SDS011;5547;42.672;23.230;2023-02-26T18:28:45;10.52;;;5.22;;
10987;SDS011;5547;42.672;23.230;2023-02-26T18:31:45;12.33;;;5.03;;
10987;SDS011;5547;42.672;23.230;2023-02-26T18:34:46;12.43;;;5.13;;
10987;SDS011;5547;42.672;23.230;2023-02-26T18:37:49;16.90;;;5.35;;
10987;SDS011;5547;42.672;23.230;2023-02-26T18:40:51;13.82;;;5.45;;
10987;SDS011;5547;42.672;23.230;2023-02-26T18:43:52;16.10;;;5.97;;
10987;SDS011;5547;42.672;23.230;2023-02-26T18:46:53;15.10;;;5.57;;
10987;SDS011;5547;42.672;23.230;2023-02-26T18:49:53;12.55;;;4.72;;
10987;SDS011;5547;42.672;23.230;2023-02-26T18:52:56;15.85;;;5.53;;
10987;SDS011;5547;42.672;23.230;2023-02-26T18:55:56;13.55;;;5.65;;
10987;SDS011;5547;42.672;23.230;2023-02-26T18:58:57;13.53;;;5.30;;
10987;SDS011;5547;42.672;23.230;2023-02-26T19:01:58;14.00;;;5.40;;
10987;SDS011;5547;42.672;23.230;2023-02-26T19:04:59;15.45;;;5.68;;
10987;SDS011;5547;42.672;23.230;2023-02-26T19:08:00;13.40;;;6.30;;
10987;SDS011;5547;42.672;23.230;2023-02-26T19:11:01;13.90;;;5.60;;
10987;SDS011;5547;42.672;23.230;2023-02-26T19:14:01;16.83;;;5.80;;
10987;SDS011;5547;42.672;23.230;2023-02-26T19:17:01;17.83;;;6.20;;
10987;SDS011;5547;42.672;23.230;2023-02-26T19:20:02;14.60;;;5.77;;
10987;SDS011;5547;42.672;23.230;2023-02-26T19:23:03;15.57;;;5.47;;
10987;SDS011;5547;42.672;23.230;2023-02-26T19:26:04;13.30;;;5.60;;
10987;SDS011;5547;42.672;23.230;2023-02-26T19:29:06;16.02;;;5.53;;
10987;SDS011;5547;42.672;23.230;2023-02-26T19:32:08;17.25;;;5.57;;
10987;SDS011;5547;42.672;23.230;2023-02-26T19:35:09;14.88;;;5.75;;
10987;SDS011;5547;42.672;23.230;2023-02-26T19:38:10;11.63;;;5.77;;
10987;SDS011;5547;42.672;23.230;2023-02-26T19:41:10;16.92;;;6.43;;
10987;SDS011;5547;42.672;23.230;2023-02-26T19:44:10;13.53;;;6.07;;
10987;SDS011;5547;42.672;23.230;2023-02-26T19:47:11;21.90;;;7.57;;
10987;SDS011;5547;42.672;23.230;2023-02-26T19:50:11;18.30;;;7.63;;
10987;SDS011;5547;42.672;23.230;2023-02-26T19:53:13;21.25;;;8.85;;
10987;SDS011;5547;42.672;23.230;2023-02-26T19:56:15;22.57;;;9.87;;
10987;SDS011;5547;42.672;23.230;2023-02-26T19:59:15;21.27;;;9.27;;
10987;SDS011;5547;42.672;23.230;2023-02-26T20:02:17;15.75;;;5.90;;
10987;SDS011;5547;42.672;23.230;2023-02-26T20:05:18;19.60;;;6.27;;
10987;SDS011;5547;42.672;23.230;2023-02-26T20:08:19;14.75;;;5.47;;
10987;SDS011;5547;42.672;23.230;2023-02-26T20:11:20;15.20;;;5.60;;
10987;SDS011;5547;42.672;23.230;2023-02-26T20:14:21;14.25;;;5.35;;
10987;SDS011;5547;42.672;23.230;2023-02-26T20:17:21;12.67;;;5.20;;
10987;SDS011;5547;42.672;23.230;2023-02-26T20:20:22;15.63;;;5.10;;
10987;SDS011;5547;42.672;23.230;2023-02-26T20:23:22;11.83;;;5.27;;
10987;SDS011;5547;42.672;23.230;2023-02-26T20:26:23;14.75;;;5.40;;
10987;SDS011;5547;42.672;23.230;2023-02-26T20:29:23;15.33;;;5.77;;
10987;SDS011;5547;42.672;23.230;2023-02-26T20:32:24;17.13;;;5.63;;
10987;SDS011;5547;42.672;23.230;2023-02-26T20:35:25;13.50;;;6.03;;
10987;SDS011;5547;42.672;23.230;2023-02-26T20:38:25;13.77;;;5.60;;
10987;SDS011;5547;42.672;23.230;2023-02-26T20:41:27;14.27;;;5.63;;
10987;SDS011;5547;42.672;23.230;2023-02-26T20:44:27;14.70;;;5.55;;
10987;SDS011;5547;42.672;23.230;2023-02-26T20:47:28;14.13;;;5.13;;
10987;SDS011;5547;42.672;23.230;2023-02-26T20:50:28;12.70;;;5.83;;
10987;SDS011;5547;42.672;23.230;2023-02-26T20:53:29;14.00;;;6.13;;
10987;SDS011;5547;42.672;23.230;2023-02-26T20:56:29;14.27;;;5.43;;
10987;SDS011;5547;42.672;23.230;2023-02-26T20:59:30;15.83;;;5.73;;
10987;SDS011;5547;42.672;23.230;2023-02-26T21:02:30;12.30;;;5.50;;
10987;SDS011;5547;42.672;23.230;2023-02-26T21:05:31;13.23;;;5.77;;
10987;SDS011;5547;42.672;23.230;2023-02-26T21:08:33;18.17;;;6.30;;
10987;SDS011;5547;42.672;23.230;2023-02-26T21:11:33;14.68;;;6.15;;
10987;SDS011;5547;42.672;23.230;2023-02-26T21:14:34;16.00;;;6.68;;
10987;SDS011;5547;42.672;23.230;2023-02-26T21:17:35;16.00;;;6.60;;